sensor_id;sensor_type;location;lat;lon;timestamp;P1;durP1;ratioP1;P2;durP2;ratioP2
56824;SDS011;42705;50.326;18.772;2023-02-14T00:00:05;38.40;;;19.60;;
56824;SDS011;42705;50.326;18.772;2023-02-14T00:05:49;35.80;;;19.60;;
56824;SDS011;42705;50.326;18.772;2023-02-14T00:11:11;38.60;;;18.80;;
56824;SDS011;42705;50.326;18.772;2023-02-14T00:16:33;31.20;;;17.60;;
56824;SDS011;42705;50.326;18.772;2023-02-14T00:21:54;29.90;;;16.20;;
56824;SDS011;42705;50.326;18.772;2023-02-14T00:27:15;34.80;;;17.10;;
56824;SDS011;42705;50.326;18.772;2023-02-14T00:32:37;31.30;;;14.80;;
56824;SDS011;42705;50.326;18.772;2023-02-14T00:37:59;28.50;;;15.70;;
56824;SDS011;42705;50.326;18.772;2023-02-14T00:43:20;36.70;;;16.60;;
56824;SDS011;42705;50.326;18.772;2023-02-14T00:48:41;29.30;;;14.90;;
56824;SDS011;42705;50.326;18.772;2023-02-14T00:59:26;28.00;;;15.40;;
56824;SDS011;42705;50.326;18.772;2023-02-14T01:04:47;29.20;;;14.50;;
56824;SDS011;42705;50.326;18.772;2023-02-14T01:10:08;27.00;;;14.50;;
56824;SDS011;42705;50.326;18.772;2023-02-14T01:15:30;29.30;;;15.00;;
56824;SDS011;42705;50.326;18.772;2023-02-14T01:20:53;25.20;;;13.00;;
56824;SDS011;42705;50.326;18.772;2023-02-14T01:26:14;24.00;;;12.90;;
56824;SDS011;42705;50.326;18.772;2023-02-14T01:31:36;26.60;;;14.30;;
56824;SDS011;42705;50.326;18.772;2023-02-14T01:36:58;21.10;;;12.50;;
56824;SDS011;42705;50.326;18.772;2023-02-14T01:42:19;24.00;;;13.90;;
56824;SDS011;42705;50.326;18.772;2023-02-14T01:47:40;25.00;;;14.30;;
56824;SDS011;42705;50.326;18.772;2023-02-14T01:53:47;21.50;;;12.60;;
56824;SDS011;42705;50.326;18.772;2023-02-14T01:58:52;25.10;;;14.00;;
56824;SDS011;42705;50.326;18.772;2023-02-14T02:04:25;25.50;;;14.40;;
56824;SDS011;42705;50.326;18.772;2023-02-14T02:09:53;22.20;;;13.20;;
56824;SDS011;42705;50.326;18.772;2023-02-14T02:15:18;20.60;;;12.60;;
56824;SDS011;42705;50.326;18.772;2023-02-14T02:55:10;22.10;;;12.30;;
56824;SDS011;42705;50.326;18.772;2023-02-14T03:00:36;28.00;;;14.10;;
56824;SDS011;42705;50.326;18.772;2023-02-14T03:05:58;28.20;;;14.30;;
56824;SDS011;42705;50.326;18.772;2023-02-14T03:11:20;22.50;;;13.50;;
56824;SDS011;42705;50.326;18.772;2023-02-14T03:28:17;20.30;;;11.30;;
56824;SDS011;42705;50.326;18.772;2023-02-14T03:44:59;17.90;;;11.50;;
56824;SDS011;42705;50.326;18.772;2023-02-14T03:50:23;21.30;;;12.10;;
56824;SDS011;42705;50.326;18.772;2023-02-14T04:01:31;19.20;;;12.20;;
56824;SDS011;42705;50.326;18.772;2023-02-14T04:06:55;16.90;;;11.40;;
56824;SDS011;42705;50.326;18.772;2023-02-14T04:12:17;18.80;;;11.30;;
56824;SDS011;42705;50.326;18.772;2023-02-14T04:17:40;15.60;;;9.60;;
56824;SDS011;42705;50.326;18.772;2023-02-14T04:23:20;19.90;;;11.10;;
56824;SDS011;42705;50.326;18.772;2023-02-14T04:28:41;17.20;;;10.10;;
56824;SDS011;42705;50.326;18.772;2023-02-14T04:34:02;17.20;;;10.20;;
56824;SDS011;42705;50.326;18.772;2023-02-14T04:39:23;18.30;;;9.90;;
56824;SDS011;42705;50.326;18.772;2023-02-14T04:44:44;14.90;;;9.00;;
56824;SDS011;42705;50.326;18.772;2023-02-14T04:50:06;16.30;;;10.00;;
56824;SDS011;42705;50.326;18.772;2023-02-14T04:55:28;22.60;;;11.70;;
56824;SDS011;42705;50.326;18.772;2023-02-14T05:00:50;18.10;;;10.10;;
56824;SDS011;42705;50.326;18.772;2023-02-14T05:06:11;15.70;;;9.80;;
56824;SDS011;42705;50.326;18.772;2023-02-14T05:11:32;19.80;;;10.90;;
56824;SDS011;42705;50.326;18.772;2023-02-14T05:16:53;20.90;;;11.60;;
56824;SDS011;42705;50.326;18.772;2023-02-14T05:22:15;21.60;;;11.60;;
56824;SDS011;42705;50.326;18.772;2023-02-14T05:27:36;20.90;;;10.60;;
56824;SDS011;42705;50.326;18.772;2023-02-14T05:32:57;18.00;;;10.30;;
56824;SDS011;42705;50.326;18.772;2023-02-14T05:38:18;20.50;;;10.60;;
56824;SDS011;42705;50.326;18.772;2023-02-14T05:43:39;18.00;;;11.00;;
56824;SDS011;42705;50.326;18.772;2023-02-14T05:49:00;22.00;;;11.00;;
56824;SDS011;42705;50.326;18.772;2023-02-14T05:54:21;19.30;;;10.00;;
56824;SDS011;42705;50.326;18.772;2023-02-14T05:59:43;20.90;;;10.90;;
56824;SDS011;42705;50.326;18.772;2023-02-14T06:05:04;20.90;;;11.70;;
56824;SDS011;42705;50.326;18.772;2023-02-14T06:10:25;18.10;;;10.90;;
56824;SDS011;42705;50.326;18.772;2023-02-14T06:15:47;20.70;;;11.60;;
56824;SDS011;42705;50.326;18.772;2023-02-14T06:21:08;27.30;;;11.50;;
56824;SDS011;42705;50.326;18.772;2023-02-14T06:26:29;23.40;;;11.70;;
56824;SDS011;42705;50.326;18.772;2023-02-14T06:31:51;20.80;;;10.80;;
56824;SDS011;42705;50.326;18.772;2023-02-14T06:37:12;21.20;;;11.80;;
56824;SDS011;42705;50.326;18.772;2023-02-14T06:42:33;23.60;;;11.60;;
56824;SDS011;42705;50.326;18.772;2023-02-14T06:47:55;21.40;;;10.90;;
56824;SDS011;42705;50.326;18.772;2023-02-14T06:53:16;20.50;;;12.10;;
56824;SDS011;42705;50.326;18.772;2023-02-14T06:58:37;22.80;;;11.60;;
56824;SDS011;42705;50.326;18.772;2023-02-14T07:03:58;20.40;;;10.60;;
56824;SDS011;42705;50.326;18.772;2023-02-14T07:09:19;18.10;;;10.90;;
56824;SDS011;42705;50.326;18.772;2023-02-14T07:14:41;22.80;;;11.80;;
56824;SDS011;42705;50.326;18.772;2023-02-14T07:20:02;23.50;;;11.30;;
56824;SDS011;42705;50.326;18.772;2023-02-14T07:25:25;18.30;;;10.10;;
56824;SDS011;42705;50.326;18.772;2023-02-14T07:30:48;19.30;;;9.90;;
56824;SDS011;42705;50.326;18.772;2023-02-14T07:36:09;16.10;;;9.50;;
56824;SDS011;42705;50.326;18.772;2023-02-14T07:41:30;23.30;;;11.00;;
56824;SDS011;42705;50.326;18.772;2023-02-14T07:46:52;21.60;;;10.70;;
56824;SDS011;42705;50.326;18.772;2023-02-14T07:52:13;17.30;;;9.40;;
56824;SDS011;42705;50.326;18.772;2023-02-14T07:57:34;17.60;;;9.00;;
56824;SDS011;42705;50.326;18.772;2023-02-14T08:02:55;19.80;;;9.40;;
56824;SDS011;42705;50.326;18.772;2023-02-14T08:08:17;18.40;;;9.80;;
56824;SDS011;42705;50.326;18.772;2023-02-14T08:13:38;16.70;;;8.70;;
56824;SDS011;42705;50.326;18.772;2023-02-14T08:19:00;19.50;;;9.20;;
56824;SDS011;42705;50.326;18.772;2023-02-14T08:24:22;16.90;;;9.50;;
56824;SDS011;42705;50.326;18.772;2023-02-14T08:29:43;18.90;;;10.20;;
56824;SDS011;42705;50.326;18.772;2023-02-14T08:35:04;15.80;;;8.70;;
56824;SDS011;42705;50.326;18.772;2023-02-14T08:40:26;17.30;;;9.60;;
56824;SDS011;42705;50.326;18.772;2023-02-14T08:45:47;22.20;;;9.10;;
56824;SDS011;42705;50.326;18.772;2023-02-14T08:51:13;15.80;;;8.90;;
56824;SDS011;42705;50.326;18.772;2023-02-14T08:56:34;17.10;;;9.40;;
56824;SDS011;42705;50.326;18.772;2023-02-14T09:01:56;18.40;;;9.00;;
56824;SDS011;42705;50.326;18.772;2023-02-14T09:07:17;14.70;;;9.00;;
56824;SDS011;42705;50.326;18.772;2023-02-14T09:12:40;17.40;;;9.10;;
56824;SDS011;42705;50.326;18.772;2023-02-14T09:18:01;15.80;;;9.90;;
56824;SDS011;42705;50.326;18.772;2023-02-14T09:23:23;19.50;;;9.50;;
56824;SDS011;42705;50.326;18.772;2023-02-14T09:28:44;17.80;;;8.60;;
56824;SDS011;42705;50.326;18.772;2023-02-14T09:34:06;15.40;;;8.70;;
56824;SDS011;42705;50.326;18.772;2023-02-14T09:39:46;15.20;;;9.10;;
56824;SDS011;42705;50.326;18.772;2023-02-14T09:45:09;20.70;;;10.10;;
56824;SDS011;42705;50.326;18.772;2023-02-14T09:56:16;16.90;;;9.70;;
56824;SDS011;42705;50.326;18.772;2023-02-14T10:01:47;21.70;;;11.40;;
56824;SDS011;42705;50.326;18.772;2023-02-14T10:07:18;19.60;;;10.80;;
56824;SDS011;42705;50.326;18.772;2023-02-14T10:12:54;19.80;;;9.90;;
56824;SDS011;42705;50.326;18.772;2023-02-14T10:18:42;21.00;;;11.10;;
56824;SDS011;42705;50.326;18.772;2023-02-14T10:24:15;18.80;;;11.20;;
56824;SDS011;42705;50.326;18.772;2023-02-14T10:29:40;18.30;;;9.80;;
56824;SDS011;42705;50.326;18.772;2023-02-14T10:35:10;22.40;;;10.50;;
56824;SDS011;42705;50.326;18.772;2023-02-14T10:57:29;16.40;;;8.00;;
56824;SDS011;42705;50.326;18.772;2023-02-14T11:02:57;14.40;;;8.80;;
56824;SDS011;42705;50.326;18.772;2023-02-14T11:08:32;14.80;;;8.60;;
56824;SDS011;42705;50.326;18.772;2023-02-14T11:13:55;12.10;;;7.00;;
56824;SDS011;42705;50.326;18.772;2023-02-14T11:24:46;16.10;;;8.50;;
56824;SDS011;42705;50.326;18.772;2023-02-14T11:30:12;21.10;;;10.10;;
56824;SDS011;42705;50.326;18.772;2023-02-14T11:35:51;13.50;;;7.40;;
56824;SDS011;42705;50.326;18.772;2023-02-14T11:41:13;15.80;;;9.10;;
56824;SDS011;42705;50.326;18.772;2023-02-14T11:46:37;15.90;;;9.30;;
56824;SDS011;42705;50.326;18.772;2023-02-14T11:52:09;12.90;;;7.40;;
56824;SDS011;42705;50.326;18.772;2023-02-14T11:57:36;12.00;;;7.60;;
56824;SDS011;42705;50.326;18.772;2023-02-14T12:03:00;15.10;;;9.00;;
56824;SDS011;42705;50.326;18.772;2023-02-14T12:08:26;15.10;;;7.70;;
56824;SDS011;42705;50.326;18.772;2023-02-14T12:13:55;14.50;;;9.00;;
56824;SDS011;42705;50.326;18.772;2023-02-14T12:19:23;12.30;;;7.90;;
56824;SDS011;42705;50.326;18.772;2023-02-14T12:30:32;13.70;;;7.00;;
56824;SDS011;42705;50.326;18.772;2023-02-14T12:53:34;12.10;;;5.60;;
56824;SDS011;42705;50.326;18.772;2023-02-14T13:10:14;13.70;;;7.50;;
56824;SDS011;42705;50.326;18.772;2023-02-14T13:15:45;13.30;;;7.30;;
56824;SDS011;42705;50.326;18.772;2023-02-14T13:21:21;14.70;;;7.90;;
56824;SDS011;42705;50.326;18.772;2023-02-14T13:26:46;13.80;;;7.50;;
56824;SDS011;42705;50.326;18.772;2023-02-14T13:32:14;13.50;;;7.50;;
56824;SDS011;42705;50.326;18.772;2023-02-14T13:37:39;12.60;;;6.60;;
56824;SDS011;42705;50.326;18.772;2023-02-14T13:43:10;15.20;;;7.50;;
56824;SDS011;42705;50.326;18.772;2023-02-14T13:48:31;7.50;;;4.80;;
56824;SDS011;42705;50.326;18.772;2023-02-14T13:53:53;9.30;;;5.10;;
56824;SDS011;42705;50.326;18.772;2023-02-14T14:04:52;16.10;;;8.20;;
56824;SDS011;42705;50.326;18.772;2023-02-14T14:10:14;18.50;;;9.00;;
56824;SDS011;42705;50.326;18.772;2023-02-14T14:21:42;10.20;;;7.20;;
56824;SDS011;42705;50.326;18.772;2023-02-14T14:27:20;16.60;;;9.50;;
56824;SDS011;42705;50.326;18.772;2023-02-14T14:32:45;19.00;;;8.90;;
56824;SDS011;42705;50.326;18.772;2023-02-14T14:38:11;14.40;;;8.70;;
56824;SDS011;42705;50.326;18.772;2023-02-14T14:43:34;13.20;;;7.60;;
56824;SDS011;42705;50.326;18.772;2023-02-14T14:48:59;12.80;;;7.40;;
56824;SDS011;42705;50.326;18.772;2023-02-14T14:54:22;8.20;;;4.80;;
56824;SDS011;42705;50.326;18.772;2023-02-14T14:59:47;10.30;;;6.30;;
56824;SDS011;42705;50.326;18.772;2023-02-14T15:05:25;11.10;;;6.00;;
56824;SDS011;42705;50.326;18.772;2023-02-14T15:10:53;7.70;;;5.50;;
56824;SDS011;42705;50.326;18.772;2023-02-14T15:16:25;7.50;;;5.50;;
56824;SDS011;42705;50.326;18.772;2023-02-14T15:21:47;8.80;;;6.00;;
56824;SDS011;42705;50.326;18.772;2023-02-14T15:27:14;13.20;;;6.80;;
56824;SDS011;42705;50.326;18.772;2023-02-14T15:32:37;11.40;;;6.80;;
56824;SDS011;42705;50.326;18.772;2023-02-14T15:38:00;10.50;;;6.90;;
56824;SDS011;42705;50.326;18.772;2023-02-14T15:43:32;12.40;;;7.50;;
56824;SDS011;42705;50.326;18.772;2023-02-14T15:48:57;14.80;;;7.10;;
56824;SDS011;42705;50.326;18.772;2023-02-14T15:59:51;13.40;;;8.40;;
56824;SDS011;42705;50.326;18.772;2023-02-14T16:05:17;19.50;;;8.50;;
56824;SDS011;42705;50.326;18.772;2023-02-14T16:10:41;14.00;;;9.10;;
56824;SDS011;42705;50.326;18.772;2023-02-14T16:16:03;14.50;;;8.40;;
56824;SDS011;42705;50.326;18.772;2023-02-14T16:21:27;13.60;;;8.10;;
56824;SDS011;42705;50.326;18.772;2023-02-14T16:26:54;13.70;;;9.10;;
56824;SDS011;42705;50.326;18.772;2023-02-14T16:32:21;16.40;;;8.70;;
56824;SDS011;42705;50.326;18.772;2023-02-14T16:37:44;23.90;;;11.30;;
56824;SDS011;42705;50.326;18.772;2023-02-14T16:43:10;19.80;;;9.50;;
56824;SDS011;42705;50.326;18.772;2023-02-14T16:48:32;14.40;;;7.70;;
56824;SDS011;42705;50.326;18.772;2023-02-14T16:53:54;11.10;;;7.90;;
56824;SDS011;42705;50.326;18.772;2023-02-14T16:59:19;11.80;;;7.80;;
56824;SDS011;42705;50.326;18.772;2023-02-14T17:04:40;22.20;;;12.10;;
56824;SDS011;42705;50.326;18.772;2023-02-14T17:10:03;29.40;;;15.60;;
56824;SDS011;42705;50.326;18.772;2023-02-14T17:15:28;35.30;;;18.40;;
56824;SDS011;42705;50.326;18.772;2023-02-14T17:20:50;49.00;;;21.60;;
56824;SDS011;42705;50.326;18.772;2023-02-14T17:26:12;32.00;;;17.00;;
56824;SDS011;42705;50.326;18.772;2023-02-14T17:31:34;37.10;;;20.40;;
56824;SDS011;42705;50.326;18.772;2023-02-14T17:36:56;34.60;;;20.00;;
56824;SDS011;42705;50.326;18.772;2023-02-14T17:42:18;42.00;;;23.30;;
56824;SDS011;42705;50.326;18.772;2023-02-14T17:47:39;39.80;;;21.30;;
56824;SDS011;42705;50.326;18.772;2023-02-14T17:53:03;33.00;;;18.70;;
56824;SDS011;42705;50.326;18.772;2023-02-14T17:58:24;65.20;;;28.00;;
56824;SDS011;42705;50.326;18.772;2023-02-14T18:03:45;96.30;;;37.20;;
56824;SDS011;42705;50.326;18.772;2023-02-14T18:09:07;33.10;;;16.70;;
56824;SDS011;42705;50.326;18.772;2023-02-14T18:14:29;30.10;;;14.80;;
56824;SDS011;42705;50.326;18.772;2023-02-14T18:19:51;27.00;;;15.40;;
56824;SDS011;42705;50.326;18.772;2023-02-14T18:25:12;29.50;;;15.40;;
56824;SDS011;42705;50.326;18.772;2023-02-14T18:30:35;41.60;;;22.00;;
56824;SDS011;42705;50.326;18.772;2023-02-14T18:35:59;38.00;;;19.60;;
56824;SDS011;42705;50.326;18.772;2023-02-14T18:41:21;38.60;;;20.00;;
56824;SDS011;42705;50.326;18.772;2023-02-14T18:46:47;29.30;;;16.70;;
56824;SDS011;42705;50.326;18.772;2023-02-14T18:59:48;39.30;;;19.50;;
56824;SDS011;42705;50.326;18.772;2023-02-14T19:05:09;38.30;;;23.20;;
56824;SDS011;42705;50.326;18.772;2023-02-14T19:10:30;47.80;;;24.40;;
56824;SDS011;42705;50.326;18.772;2023-02-14T19:15:53;47.90;;;25.80;;
56824;SDS011;42705;50.326;18.772;2023-02-14T19:26:39;55.40;;;30.80;;
56824;SDS011;42705;50.326;18.772;2023-02-14T19:32:01;70.20;;;34.10;;
56824;SDS011;42705;50.326;18.772;2023-02-14T19:37:22;71.20;;;35.70;;
56824;SDS011;42705;50.326;18.772;2023-02-14T19:42:43;72.50;;;35.60;;
56824;SDS011;42705;50.326;18.772;2023-02-14T19:48:05;61.80;;;33.60;;
56824;SDS011;42705;50.326;18.772;2023-02-14T19:53:26;67.00;;;33.30;;
56824;SDS011;42705;50.326;18.772;2023-02-14T19:58:48;69.40;;;37.00;;
56824;SDS011;42705;50.326;18.772;2023-02-14T20:09:34;66.90;;;35.10;;
56824;SDS011;42705;50.326;18.772;2023-02-14T20:14:57;76.00;;;37.90;;
56824;SDS011;42705;50.326;18.772;2023-02-14T20:20:19;75.10;;;37.00;;
56824;SDS011;42705;50.326;18.772;2023-02-14T20:25:41;53.00;;;28.10;;
56824;SDS011;42705;50.326;18.772;2023-02-14T20:31:10;64.80;;;30.40;;
56824;SDS011;42705;50.326;18.772;2023-02-14T20:36:35;78.50;;;36.60;;
56824;SDS011;42705;50.326;18.772;2023-02-14T20:41:57;85.10;;;35.80;;
56824;SDS011;42705;50.326;18.772;2023-02-14T20:47:18;62.80;;;28.50;;
56824;SDS011;42705;50.326;18.772;2023-02-14T20:52:40;66.10;;;29.60;;
56824;SDS011;42705;50.326;18.772;2023-02-14T20:58:01;65.90;;;30.00;;
56824;SDS011;42705;50.326;18.772;2023-02-14T21:03:23;60.70;;;29.10;;
56824;SDS011;42705;50.326;18.772;2023-02-14T21:08:47;16.10;;;9.90;;
56824;SDS011;42705;50.326;18.772;2023-02-14T21:14:08;14.30;;;8.60;;
56824;SDS011;42705;50.326;18.772;2023-02-14T21:19:31;13.70;;;8.10;;
56824;SDS011;42705;50.326;18.772;2023-02-14T21:24:52;16.40;;;8.80;;
56824;SDS011;42705;50.326;18.772;2023-02-14T21:30:13;13.10;;;8.50;;
56824;SDS011;42705;50.326;18.772;2023-02-14T21:35:35;13.90;;;8.70;;
56824;SDS011;42705;50.326;18.772;2023-02-14T21:41:03;14.10;;;9.50;;
56824;SDS011;42705;50.326;18.772;2023-02-14T21:46:30;14.70;;;8.60;;
56824;SDS011;42705;50.326;18.772;2023-02-14T21:51:53;32.20;;;14.40;;
56824;SDS011;42705;50.326;18.772;2023-02-14T21:57:14;25.80;;;12.50;;
56824;SDS011;42705;50.326;18.772;2023-02-14T22:02:36;32.10;;;14.70;;
56824;SDS011;42705;50.326;18.772;2023-02-14T22:08:01;14.50;;;9.10;;
56824;SDS011;42705;50.326;18.772;2023-02-14T22:13:22;14.40;;;9.00;;
56824;SDS011;42705;50.326;18.772;2023-02-14T22:18:43;16.60;;;9.50;;
56824;SDS011;42705;50.326;18.772;2023-02-14T22:24:07;16.40;;;9.90;;
56824;SDS011;42705;50.326;18.772;2023-02-14T22:29:28;16.30;;;10.10;;
56824;SDS011;42705;50.326;18.772;2023-02-14T22:34:50;19.30;;;11.20;;
56824;SDS011;42705;50.326;18.772;2023-02-14T22:40:11;22.90;;;12.40;;
56824;SDS011;42705;50.326;18.772;2023-02-14T22:45:32;26.80;;;13.60;;
56824;SDS011;42705;50.326;18.772;2023-02-14T22:50:53;26.30;;;13.30;;
56824;SDS011;42705;50.326;18.772;2023-02-14T22:56:34;21.20;;;13.20;;
56824;SDS011;42705;50.326;18.772;2023-02-14T23:01:58;21.50;;;13.40;;
56824;SDS011;42705;50.326;18.772;2023-02-14T23:07:21;23.50;;;12.90;;
56824;SDS011;42705;50.326;18.772;2023-02-14T23:12:42;31.50;;;15.60;;
56824;SDS011;42705;50.326;18.772;2023-02-14T23:18:22;27.70;;;15.50;;
56824;SDS011;42705;50.326;18.772;2023-02-14T23:24:02;32.00;;;17.70;;
56824;SDS011;42705;50.326;18.772;2023-02-14T23:29:23;35.80;;;19.30;;
56824;SDS011;42705;50.326;18.772;2023-02-14T23:34:45;38.00;;;19.80;;
56824;SDS011;42705;50.326;18.772;2023-02-14T23:40:07;35.60;;;19.30;;
56824;SDS011;42705;50.326;18.772;2023-02-14T23:45:29;40.90;;;22.60;;
56824;SDS011;42705;50.326;18.772;2023-02-14T23:50:59;48.20;;;24.90;;
56824;SDS011;42705;50.326;18.772;2023-02-14T23:56:20;42.10;;;23.40;;
